sensor_id;sensor_type;location;lat;lon;timestamp;pressure;altitude;pressure_sealevel;temperature;humidity
72959;BME280;60008;50.826;6.896;2023-05-01T00:01:10;101129.47;;;11.61;100.00
72959;BME280;60008;50.826;6.896;2023-05-01T00:03:55;101129.47;;;11.61;100.00
72959;BME280;60008;50.826;6.896;2023-05-01T00:06:40;101118.53;;;11.64;100.00
72959;BME280;60008;50.826;6.896;2023-05-01T00:09:28;101117.88;;;11.62;100.00
72959;BME280;60008;50.826;6.896;2023-05-01T00:12:13;101117.88;;;11.62;100.00
72959;BME280;60008;50.826;6.896;2023-05-01T00:14:58;101118.38;;;11.57;100.00
72959;BME280;60008;50.826;6.896;2023-05-01T00:17:43;101118.69;;;11.54;100.00
72959;BME280;60008;50.826;6.896;2023-05-01T00:20:28;101112.22;;;11.57;100.00
72959;BME280;60008;50.826;6.896;2023-05-01T00:23:13;101111.91;;;11.60;100.00
72959;BME280;60008;50.826;6.896;2023-05-01T00:25:58;101110.09;;;11.60;100.00
72959;BME280;60008;50.826;6.896;2023-05-01T00:28:43;101108.25;;;11.61;100.00
72959;BME280;60008;50.826;6.896;2023-05-01T00:31:28;101101.94;;;11.62;100.00
72959;BME280;60008;50.826;6.896;2023-05-01T00:34:13;101105.78;;;11.67;100.00
72959;BME280;60008;50.826;6.896;2023-05-01T00:36:58;101098.97;;;11.65;100.00
72959;BME280;60008;50.826;6.896;2023-05-01T00:39:43;101096.81;;;11.60;100.00
72959;BME280;60008;50.826;6.896;2023-05-01T00:42:36;101100.28;;;11.61;100.00
72959;BME280;60008;50.826;6.896;2023-05-01T00:45:22;101098.16;;;11.64;100.00
72959;BME280;60008;50.826;6.896;2023-05-01T00:48:09;101103.44;;;11.64;100.00
72959;BME280;60008;50.826;6.896;2023-05-01T00:50:55;101094.34;;;11.67;100.00
72959;BME280;60008;50.826;6.896;2023-05-01T00:53:42;101088.19;;;11.66;100.00
72959;BME280;60008;50.826;6.896;2023-05-01T00:56:29;101084.03;;;11.64;100.00
72959;BME280;60008;50.826;6.896;2023-05-01T00:59:14;101080.91;;;11.68;100.00
72959;BME280;60008;50.826;6.896;2023-05-01T01:02:00;101081.91;;;11.67;100.00
72959;BME280;60008;50.826;6.896;2023-05-01T01:04:45;101066.91;;;11.58;100.00
72959;BME280;60008;50.826;6.896;2023-05-01T01:07:40;101066.16;;;11.66;100.00
72959;BME280;60008;50.826;6.896;2023-05-01T01:10:53;101067.50;;;11.70;100.00
72959;BME280;60008;50.826;6.896;2023-05-01T01:16:45;101054.88;;;11.72;100.00
72959;BME280;60008;50.826;6.896;2023-05-01T01:19:43;101055.91;;;11.71;100.00
72959;BME280;60008;50.826;6.896;2023-05-01T01:22:35;101049.94;;;11.77;100.00
72959;BME280;60008;50.826;6.896;2023-05-01T01:29:02;101042.13;;;11.75;100.00
72959;BME280;60008;50.826;6.896;2023-05-01T01:32:16;101043.81;;;11.76;100.00
72959;BME280;60008;50.826;6.896;2023-05-01T01:35:17;101039.66;;;11.74;100.00
72959;BME280;60008;50.826;6.896;2023-05-01T01:38:05;101047.25;;;11.69;100.00
72959;BME280;60008;50.826;6.896;2023-05-01T01:41:06;101041.41;;;11.65;100.00
72959;BME280;60008;50.826;6.896;2023-05-01T01:43:59;101033.72;;;11.54;100.00
72959;BME280;60008;50.826;6.896;2023-05-01T01:46:47;101028.78;;;11.59;100.00
72959;BME280;60008;50.826;6.896;2023-05-01T01:49:33;101029.63;;;11.68;100.00
72959;BME280;60008;50.826;6.896;2023-05-01T01:52:22;101024.19;;;11.69;100.00
72959;BME280;60008;50.826;6.896;2023-05-01T01:55:11;101021.00;;;11.66;100.00
72959;BME280;60008;50.826;6.896;2023-05-01T01:57:58;101026.94;;;11.60;100.00
72959;BME280;60008;50.826;6.896;2023-05-01T02:00:44;101021.28;;;11.55;100.00
72959;BME280;60008;50.826;6.896;2023-05-01T02:03:30;101016.66;;;11.57;100.00
72959;BME280;60008;50.826;6.896;2023-05-01T02:06:16;101006.88;;;11.57;100.00
72959;BME280;60008;50.826;6.896;2023-05-01T02:09:02;101005.72;;;11.60;100.00
72959;BME280;60008;50.826;6.896;2023-05-01T02:11:50;100997.13;;;11.66;100.00
72959;BME280;60008;50.826;6.896;2023-05-01T02:14:37;100993.16;;;11.70;100.00
72959;BME280;60008;50.826;6.896;2023-05-01T02:17:23;100987.84;;;11.70;100.00
72959;BME280;60008;50.826;6.896;2023-05-01T02:20:10;100987.03;;;11.77;100.00
72959;BME280;60008;50.826;6.896;2023-05-01T02:22:57;100980.75;;;11.78;100.00
72959;BME280;60008;50.826;6.896;2023-05-01T02:25:43;100984.38;;;11.77;100.00
72959;BME280;60008;50.826;6.896;2023-05-01T02:28:29;100979.56;;;11.73;100.00
72959;BME280;60008;50.826;6.896;2023-05-01T02:31:15;100972.56;;;11.72;100.00
72959;BME280;60008;50.826;6.896;2023-05-01T02:34:00;100973.94;;;11.76;100.00
72959;BME280;60008;50.826;6.896;2023-05-01T02:36:45;100967.97;;;11.74;100.00
72959;BME280;60008;50.826;6.896;2023-05-01T02:39:30;100960.31;;;11.71;100.00
72959;BME280;60008;50.826;6.896;2023-05-01T02:42:16;100962.28;;;11.69;100.00
72959;BME280;60008;50.826;6.896;2023-05-01T02:45:09;100959.78;;;11.67;100.00
72959;BME280;60008;50.826;6.896;2023-05-01T02:47:56;100949.31;;;11.66;100.00
72959;BME280;60008;50.826;6.896;2023-05-01T02:50:43;100946.66;;;11.66;100.00
72959;BME280;60008;50.826;6.896;2023-05-01T02:53:30;100952.09;;;11.56;100.00
72959;BME280;60008;50.826;6.896;2023-05-01T02:56:16;100944.28;;;11.47;100.00
72959;BME280;60008;50.826;6.896;2023-05-01T02:59:01;100943.59;;;11.45;100.00
72959;BME280;60008;50.826;6.896;2023-05-01T03:01:46;100941.25;;;11.33;100.00
72959;BME280;60008;50.826;6.896;2023-05-01T03:04:32;100934.59;;;11.29;100.00
72959;BME280;60008;50.826;6.896;2023-05-01T03:07:17;100931.47;;;11.34;100.00
72959;BME280;60008;50.826;6.896;2023-05-01T03:10:03;100930.44;;;11.27;100.00
72959;BME280;60008;50.826;6.896;2023-05-01T03:12:48;100928.44;;;11.21;100.00
72959;BME280;60008;50.826;6.896;2023-05-01T03:15:34;100921.44;;;11.20;100.00
72959;BME280;60008;50.826;6.896;2023-05-01T03:18:19;100923.94;;;11.13;100.00
72959;BME280;60008;50.826;6.896;2023-05-01T03:21:04;100927.75;;;11.11;100.00
72959;BME280;60008;50.826;6.896;2023-05-01T03:23:49;100925.53;;;11.06;100.00
72959;BME280;60008;50.826;6.896;2023-05-01T03:26:34;100920.91;;;11.00;100.00
72959;BME280;60008;50.826;6.896;2023-05-01T03:29:18;100923.34;;;10.94;100.00
72959;BME280;60008;50.826;6.896;2023-05-01T03:32:04;100918.66;;;10.88;100.00
72959;BME280;60008;50.826;6.896;2023-05-01T03:34:49;100921.47;;;10.86;100.00
72959;BME280;60008;50.826;6.896;2023-05-01T03:37:34;100914.06;;;10.90;100.00
72959;BME280;60008;50.826;6.896;2023-05-01T03:40:20;100917.00;;;10.87;100.00
72959;BME280;60008;50.826;6.896;2023-05-01T03:43:05;100915.00;;;10.81;100.00
72959;BME280;60008;50.826;6.896;2023-05-01T03:45:51;100915.66;;;10.83;100.00
72959;BME280;60008;50.826;6.896;2023-05-01T03:48:36;100911.66;;;10.79;100.00
72959;BME280;60008;50.826;6.896;2023-05-01T03:51:21;100912.13;;;10.74;100.00
72959;BME280;60008;50.826;6.896;2023-05-01T03:54:06;100903.16;;;10.67;100.00
72959;BME280;60008;50.826;6.896;2023-05-01T03:56:51;100906.47;;;10.69;100.00
72959;BME280;60008;50.826;6.896;2023-05-01T03:59:36;100903.50;;;10.72;100.00
72959;BME280;60008;50.826;6.896;2023-05-01T04:02:22;100902.03;;;10.77;100.00
72959;BME280;60008;50.826;6.896;2023-05-01T04:05:07;100899.41;;;10.77;100.00
72959;BME280;60008;50.826;6.896;2023-05-01T04:07:53;100897.88;;;10.75;100.00
72959;BME280;60008;50.826;6.896;2023-05-01T04:10:37;100905.00;;;10.74;100.00
72959;BME280;60008;50.826;6.896;2023-05-01T04:13:22;100900.00;;;10.71;100.00
72959;BME280;60008;50.826;6.896;2023-05-01T04:16:07;100897.53;;;10.70;100.00
72959;BME280;60008;50.826;6.896;2023-05-01T04:18:53;100899.88;;;10.73;100.00
72959;BME280;60008;50.826;6.896;2023-05-01T04:21:38;100893.88;;;10.71;100.00
72959;BME280;60008;50.826;6.896;2023-05-01T04:24:23;100902.22;;;10.76;100.00
72959;BME280;60008;50.826;6.896;2023-05-01T04:27:08;100904.16;;;10.74;100.00
72959;BME280;60008;50.826;6.896;2023-05-01T04:29:53;100895.38;;;10.73;100.00
72959;BME280;60008;50.826;6.896;2023-05-01T04:32:39;100901.03;;;10.70;100.00
72959;BME280;60008;50.826;6.896;2023-05-01T04:35:24;100903.81;;;10.69;100.00
72959;BME280;60008;50.826;6.896;2023-05-01T04:38:09;100906.69;;;10.75;100.00
72959;BME280;60008;50.826;6.896;2023-05-01T04:40:54;100893.13;;;10.79;100.00
72959;BME280;60008;50.826;6.896;2023-05-01T04:43:39;100898.56;;;10.77;100.00
72959;BME280;60008;50.826;6.896;2023-05-01T04:46:24;100894.94;;;10.78;100.00
72959;BME280;60008;50.826;6.896;2023-05-01T04:49:09;100899.09;;;10.81;100.00
72959;BME280;60008;50.826;6.896;2023-05-01T04:51:55;100900.75;;;10.82;100.00
72959;BME280;60008;50.826;6.896;2023-05-01T04:54:40;100899.25;;;10.87;100.00
72959;BME280;60008;50.826;6.896;2023-05-01T04:57:25;100896.47;;;10.89;100.00
72959;BME280;60008;50.826;6.896;2023-05-01T05:00:11;100900.09;;;10.88;100.00
72959;BME280;60008;50.826;6.896;2023-05-01T05:02:55;100898.16;;;10.90;100.00
72959;BME280;60008;50.826;6.896;2023-05-01T05:05:41;100899.78;;;10.91;100.00
72959;BME280;60008;50.826;6.896;2023-05-01T05:08:26;100900.13;;;10.96;100.00
72959;BME280;60008;50.826;6.896;2023-05-01T05:11:11;100898.00;;;10.99;100.00
72959;BME280;60008;50.826;6.896;2023-05-01T05:13:56;100893.38;;;11.01;100.00
72959;BME280;60008;50.826;6.896;2023-05-01T05:16:41;100893.88;;;11.05;100.00
72959;BME280;60008;50.826;6.896;2023-05-01T05:19:27;100890.09;;;11.07;100.00
72959;BME280;60008;50.826;6.896;2023-05-01T05:22:12;100902.41;;;11.16;100.00
72959;BME280;60008;50.826;6.896;2023-05-01T05:24:57;100899.25;;;11.21;100.00
72959;BME280;60008;50.826;6.896;2023-05-01T05:27:47;100898.09;;;11.23;100.00
72959;BME280;60008;50.826;6.896;2023-05-01T05:30:33;100898.63;;;11.27;100.00
72959;BME280;60008;50.826;6.896;2023-05-01T05:33:18;100891.50;;;11.35;100.00
72959;BME280;60008;50.826;6.896;2023-05-01T05:36:03;100893.03;;;11.46;100.00
72959;BME280;60008;50.826;6.896;2023-05-01T05:38:48;100898.69;;;11.51;100.00
72959;BME280;60008;50.826;6.896;2023-05-01T05:41:33;100892.53;;;11.51;100.00
72959;BME280;60008;50.826;6.896;2023-05-01T05:44:18;100883.94;;;11.57;100.00
72959;BME280;60008;50.826;6.896;2023-05-01T05:47:04;100886.41;;;11.58;100.00
72959;BME280;60008;50.826;6.896;2023-05-01T05:49:49;100886.56;;;11.57;100.00
72959;BME280;60008;50.826;6.896;2023-05-01T05:52:34;100887.47;;;11.73;100.00
72959;BME280;60008;50.826;6.896;2023-05-01T05:55:19;100881.16;;;11.74;100.00
72959;BME280;60008;50.826;6.896;2023-05-01T05:58:04;100882.16;;;11.81;100.00
72959;BME280;60008;50.826;6.896;2023-05-01T06:00:49;100880.69;;;11.87;100.00
72959;BME280;60008;50.826;6.896;2023-05-01T06:03:36;100878.50;;;11.74;100.00
72959;BME280;60008;50.826;6.896;2023-05-01T06:06:22;100886.81;;;11.87;100.00
72959;BME280;60008;50.826;6.896;2023-05-01T06:09:07;100878.03;;;11.95;100.00
72959;BME280;60008;50.826;6.896;2023-05-01T06:11:52;100874.50;;;11.70;100.00
72959;BME280;60008;50.826;6.896;2023-05-01T06:14:37;100875.50;;;11.85;100.00
72959;BME280;60008;50.826;6.896;2023-05-01T06:17:22;100881.16;;;11.90;100.00
72959;BME280;60008;50.826;6.896;2023-05-01T06:20:08;100872.84;;;12.02;100.00
72959;BME280;60008;50.826;6.896;2023-05-01T06:22:54;100879.84;;;11.94;100.00
72959;BME280;60008;50.826;6.896;2023-05-01T06:25:39;100871.88;;;11.94;100.00
72959;BME280;60008;50.826;6.896;2023-05-01T06:28:24;100869.72;;;11.98;100.00
72959;BME280;60008;50.826;6.896;2023-05-01T06:31:09;100866.38;;;12.04;100.00
72959;BME280;60008;50.826;6.896;2023-05-01T06:33:54;100873.19;;;12.07;100.00
72959;BME280;60008;50.826;6.896;2023-05-01T06:36:39;100866.53;;;12.27;100.00
72959;BME280;60008;50.826;6.896;2023-05-01T06:39:24;100869.19;;;12.19;100.00
72959;BME280;60008;50.826;6.896;2023-05-01T06:42:09;100866.03;;;12.23;100.00
72959;BME280;60008;50.826;6.896;2023-05-01T06:44:59;100870.66;;;12.45;100.00
72959;BME280;60008;50.826;6.896;2023-05-01T06:47:44;100862.13;;;12.66;100.00
72959;BME280;60008;50.826;6.896;2023-05-01T06:50:29;100867.28;;;12.68;100.00
72959;BME280;60008;50.826;6.896;2023-05-01T06:53:15;100857.09;;;12.79;100.00
72959;BME280;60008;50.826;6.896;2023-05-01T06:55:59;100859.59;;;12.73;100.00
72959;BME280;60008;50.826;6.896;2023-05-01T06:58:44;100865.22;;;12.86;100.00
72959;BME280;60008;50.826;6.896;2023-05-01T07:01:29;100862.38;;;12.87;100.00
72959;BME280;60008;50.826;6.896;2023-05-01T07:04:17;100861.66;;;13.09;100.00
72959;BME280;60008;50.826;6.896;2023-05-01T07:07:02;100860.75;;;13.25;100.00
72959;BME280;60008;50.826;6.896;2023-05-01T07:09:47;100860.59;;;13.49;100.00
72959;BME280;60008;50.826;6.896;2023-05-01T07:12:32;100854.13;;;13.44;100.00
72959;BME280;60008;50.826;6.896;2023-05-01T07:15:18;100847.56;;;13.54;100.00
72959;BME280;60008;50.826;6.896;2023-05-01T07:18:03;100854.09;;;13.52;100.00
72959;BME280;60008;50.826;6.896;2023-05-01T07:20:50;100853.56;;;13.34;100.00
72959;BME280;60008;50.826;6.896;2023-05-01T07:23:36;100848.69;;;13.06;100.00
72959;BME280;60008;50.826;6.896;2023-05-01T07:26:24;100848.19;;;13.03;100.00
72959;BME280;60008;50.826;6.896;2023-05-01T07:29:10;100854.38;;;13.57;100.00
72959;BME280;60008;50.826;6.896;2023-05-01T07:31:57;100853.84;;;13.84;100.00
72959;BME280;60008;50.826;6.896;2023-05-01T07:34:42;100848.94;;;13.50;100.00
72959;BME280;60008;50.826;6.896;2023-05-01T07:37:27;100840.41;;;13.55;100.00
72959;BME280;60008;50.826;6.896;2023-05-01T07:40:12;100844.78;;;13.70;100.00
72959;BME280;60008;50.826;6.896;2023-05-01T07:42:57;100840.66;;;14.05;100.00
72959;BME280;60008;50.826;6.896;2023-05-01T07:45:53;100845.47;;;14.47;100.00
72959;BME280;60008;50.826;6.896;2023-05-01T07:48:38;100830.63;;;14.88;100.00
72959;BME280;60008;50.826;6.896;2023-05-01T07:51:23;100837.72;;;14.96;100.00
72959;BME280;60008;50.826;6.896;2023-05-01T07:54:08;100845.66;;;14.46;100.00
72959;BME280;60008;50.826;6.896;2023-05-01T07:56:53;100841.22;;;14.01;100.00
72959;BME280;60008;50.826;6.896;2023-05-01T07:59:38;100842.22;;;14.00;100.00
72959;BME280;60008;50.826;6.896;2023-05-01T08:02:23;100839.31;;;14.09;100.00
72959;BME280;60008;50.826;6.896;2023-05-01T08:05:09;100837.69;;;13.86;100.00
72959;BME280;60008;50.826;6.896;2023-05-01T08:07:53;100839.31;;;14.61;100.00
72959;BME280;60008;50.826;6.896;2023-05-01T08:10:38;100843.72;;;14.40;100.00
72959;BME280;60008;50.826;6.896;2023-05-01T08:13:23;100841.81;;;15.13;100.00
72959;BME280;60008;50.826;6.896;2023-05-01T08:16:08;100842.22;;;14.96;100.00
72959;BME280;60008;50.826;6.896;2023-05-01T08:18:53;100842.28;;;15.53;100.00
72959;BME280;60008;50.826;6.896;2023-05-01T08:21:38;100837.44;;;15.63;100.00
72959;BME280;60008;50.826;6.896;2023-05-01T08:24:23;100835.31;;;15.01;100.00
72959;BME280;60008;50.826;6.896;2023-05-01T08:27:08;100834.59;;;15.28;100.00
72959;BME280;60008;50.826;6.896;2023-05-01T08:29:53;100835.88;;;14.97;100.00
72959;BME280;60008;50.826;6.896;2023-05-01T08:32:38;100832.00;;;14.99;100.00
72959;BME280;60008;50.826;6.896;2023-05-01T08:35:24;100829.38;;;15.41;100.00
72959;BME280;60008;50.826;6.896;2023-05-01T08:38:10;100835.25;;;14.95;100.00
72959;BME280;60008;50.826;6.896;2023-05-01T08:40:55;100831.28;;;15.26;100.00
72959;BME280;60008;50.826;6.896;2023-05-01T08:43:42;100832.34;;;15.89;100.00
72959;BME280;60008;50.826;6.896;2023-05-01T08:46:38;100831.72;;;15.66;100.00
72959;BME280;60008;50.826;6.896;2023-05-01T08:49:26;100827.97;;;15.60;100.00
72959;BME280;60008;50.826;6.896;2023-05-01T08:52:12;100821.16;;;15.58;100.00
72959;BME280;60008;50.826;6.896;2023-05-01T08:54:58;100835.13;;;16.02;100.00
72959;BME280;60008;50.826;6.896;2023-05-01T08:57:46;100826.22;;;16.23;100.00
72959;BME280;60008;50.826;6.896;2023-05-01T09:00:33;100822.25;;;15.27;100.00
72959;BME280;60008;50.826;6.896;2023-05-01T09:03:20;100825.69;;;16.96;100.00
72959;BME280;60008;50.826;6.896;2023-05-01T09:06:05;100828.25;;;17.37;99.56
72959;BME280;60008;50.826;6.896;2023-05-01T09:08:51;100825.25;;;17.59;100.00
72959;BME280;60008;50.826;6.896;2023-05-01T09:11:36;100820.75;;;17.93;91.21
72959;BME280;60008;50.826;6.896;2023-05-01T09:14:22;100824.66;;;18.10;92.44
72959;BME280;60008;50.826;6.896;2023-05-01T09:17:07;100822.53;;;18.64;91.71
72959;BME280;60008;50.826;6.896;2023-05-01T09:19:52;100823.03;;;16.61;96.77
72959;BME280;60008;50.826;6.896;2023-05-01T09:22:37;100819.69;;;17.61;93.45
72959;BME280;60008;50.826;6.896;2023-05-01T09:25:22;100823.00;;;17.76;98.37
72959;BME280;60008;50.826;6.896;2023-05-01T09:28:07;100823.38;;;17.53;96.57
72959;BME280;60008;50.826;6.896;2023-05-01T09:30:52;100828.97;;;18.11;90.72
72959;BME280;60008;50.826;6.896;2023-05-01T09:33:50;100827.31;;;16.97;95.31
72959;BME280;60008;50.826;6.896;2023-05-01T09:36:35;100824.75;;;16.76;98.40
72959;BME280;60008;50.826;6.896;2023-05-01T09:39:21;100823.63;;;17.84;99.51
72959;BME280;60008;50.826;6.896;2023-05-01T09:42:06;100821.66;;;18.77;90.08
72959;BME280;60008;50.826;6.896;2023-05-01T09:44:52;100825.03;;;18.53;92.34
72959;BME280;60008;50.826;6.896;2023-05-01T09:47:37;100822.06;;;18.80;87.36
72959;BME280;60008;50.826;6.896;2023-05-01T09:53:15;100820.94;;;18.17;88.84
72959;BME280;60008;50.826;6.896;2023-05-01T09:56:00;100825.88;;;17.81;87.38
72959;BME280;60008;50.826;6.896;2023-05-01T09:58:50;100823.44;;;18.12;85.11
72959;BME280;60008;50.826;6.896;2023-05-01T10:01:37;100812.19;;;18.74;84.13
72959;BME280;60008;50.826;6.896;2023-05-01T10:04:33;100806.94;;;19.93;79.51
72959;BME280;60008;50.826;6.896;2023-05-01T10:07:18;100806.91;;;19.37;78.79
72959;BME280;60008;50.826;6.896;2023-05-01T10:10:19;100805.25;;;19.36;85.73
72959;BME280;60008;50.826;6.896;2023-05-01T10:13:16;100802.44;;;19.62;75.11
72959;BME280;60008;50.826;6.896;2023-05-01T10:16:01;100798.19;;;21.72;62.42
72959;BME280;60008;50.826;6.896;2023-05-01T10:18:50;100800.94;;;20.40;66.79
72959;BME280;60008;50.826;6.896;2023-05-01T10:21:35;100799.34;;;18.76;74.75
72959;BME280;60008;50.826;6.896;2023-05-01T10:24:20;100790.91;;;20.04;71.21
72959;BME280;60008;50.826;6.896;2023-05-01T10:27:06;100796.53;;;18.38;78.91
72959;BME280;60008;50.826;6.896;2023-05-01T10:29:52;100793.84;;;19.02;81.60
72959;BME280;60008;50.826;6.896;2023-05-01T10:32:40;100795.34;;;18.08;83.08
72959;BME280;60008;50.826;6.896;2023-05-01T10:35:28;100798.66;;;17.64;88.04
72959;BME280;60008;50.826;6.896;2023-05-01T10:38:22;100791.88;;;17.88;88.21
72959;BME280;60008;50.826;6.896;2023-05-01T10:41:10;100787.66;;;18.51;86.19
72959;BME280;60008;50.826;6.896;2023-05-01T10:44:18;100779.69;;;17.92;88.12
72959;BME280;60008;50.826;6.896;2023-05-01T10:50:18;100782.38;;;17.99;85.03
72959;BME280;60008;50.826;6.896;2023-05-01T10:55:58;100786.63;;;18.32;87.34
72959;BME280;60008;50.826;6.896;2023-05-01T11:01:37;100788.09;;;18.35;83.90
72959;BME280;60008;50.826;6.896;2023-05-01T11:07:16;100780.13;;;18.86;84.46
72959;BME280;60008;50.826;6.896;2023-05-01T11:10:01;100778.56;;;20.58;71.35
72959;BME280;60008;50.826;6.896;2023-05-01T11:12:48;100776.91;;;19.71;84.55
72959;BME280;60008;50.826;6.896;2023-05-01T11:15:35;100771.16;;;18.98;84.44
72959;BME280;60008;50.826;6.896;2023-05-01T11:18:43;100771.34;;;19.41;78.76
72959;BME280;60008;50.826;6.896;2023-05-01T11:21:30;100771.38;;;19.91;82.88
72959;BME280;60008;50.826;6.896;2023-05-01T11:24:18;100767.47;;;19.24;84.68
72959;BME280;60008;50.826;6.896;2023-05-01T11:27:03;100771.13;;;19.43;83.31
72959;BME280;60008;50.826;6.896;2023-05-01T11:29:49;100767.69;;;19.60;81.81
72959;BME280;60008;50.826;6.896;2023-05-01T11:32:34;100765.66;;;19.56;82.52
72959;BME280;60008;50.826;6.896;2023-05-01T11:35:24;100759.41;;;20.66;75.48
72959;BME280;60008;50.826;6.896;2023-05-01T11:38:16;100766.63;;;21.02;74.95
72959;BME280;60008;50.826;6.896;2023-05-01T11:41:02;100761.66;;;20.69;68.00
72959;BME280;60008;50.826;6.896;2023-05-01T11:43:57;100761.78;;;19.95;74.10
72959;BME280;60008;50.826;6.896;2023-05-01T11:46:42;100755.94;;;19.55;77.58
72959;BME280;60008;50.826;6.896;2023-05-01T11:49:28;100760.00;;;19.64;76.47
72959;BME280;60008;50.826;6.896;2023-05-01T11:52:13;100758.56;;;19.30;72.08
72959;BME280;60008;50.826;6.896;2023-05-01T11:54:58;100758.63;;;19.80;74.69
72959;BME280;60008;50.826;6.896;2023-05-01T11:57:51;100758.78;;;19.60;71.53
72959;BME280;60008;50.826;6.896;2023-05-01T12:00:37;100753.97;;;19.69;69.72
72959;BME280;60008;50.826;6.896;2023-05-01T12:03:23;100754.41;;;19.34;73.69
72959;BME280;60008;50.826;6.896;2023-05-01T12:06:09;100756.53;;;19.82;67.96
72959;BME280;60008;50.826;6.896;2023-05-01T12:08:55;100742.38;;;20.36;68.88
72959;BME280;60008;50.826;6.896;2023-05-01T12:11:41;100743.16;;;20.00;62.73
72959;BME280;60008;50.826;6.896;2023-05-01T12:14:26;100746.00;;;19.80;65.60
72959;BME280;60008;50.826;6.896;2023-05-01T12:17:11;100749.44;;;19.38;62.63
72959;BME280;60008;50.826;6.896;2023-05-01T12:19:56;100744.97;;;19.25;61.42
72959;BME280;60008;50.826;6.896;2023-05-01T12:22:48;100744.78;;;19.20;64.39
72959;BME280;60008;50.826;6.896;2023-05-01T12:25:35;100741.38;;;19.38;68.53
72959;BME280;60008;50.826;6.896;2023-05-01T12:28:20;100743.44;;;19.42;60.64
72959;BME280;60008;50.826;6.896;2023-05-01T12:31:06;100743.56;;;19.54;61.70
72959;BME280;60008;50.826;6.896;2023-05-01T12:33:56;100724.97;;;19.71;60.62
72959;BME280;60008;50.826;6.896;2023-05-01T12:36:52;100731.84;;;19.67;60.70
72959;BME280;60008;50.826;6.896;2023-05-01T12:39:38;100735.88;;;20.00;63.30
72959;BME280;60008;50.826;6.896;2023-05-01T12:42:24;100734.72;;;20.69;61.51
72959;BME280;60008;50.826;6.896;2023-05-01T12:45:09;100737.69;;;20.79;59.25
72959;BME280;60008;50.826;6.896;2023-05-01T12:47:58;100729.38;;;20.33;57.37
72959;BME280;60008;50.826;6.896;2023-05-01T12:50:43;100737.41;;;20.69;56.43
72959;BME280;60008;50.826;6.896;2023-05-01T12:53:31;100731.34;;;19.76;66.00
72959;BME280;60008;50.826;6.896;2023-05-01T12:56:21;100730.41;;;19.89;61.99
72959;BME280;60008;50.826;6.896;2023-05-01T12:59:19;100736.94;;;20.24;62.59
72959;BME280;60008;50.826;6.896;2023-05-01T13:02:05;100722.63;;;19.81;58.26
72959;BME280;60008;50.826;6.896;2023-05-01T13:04:50;100724.66;;;20.03;53.59
72959;BME280;60008;50.826;6.896;2023-05-01T13:07:36;100725.25;;;20.48;49.36
72959;BME280;60008;50.826;6.896;2023-05-01T13:10:29;100720.06;;;20.65;48.71
72959;BME280;60008;50.826;6.896;2023-05-01T13:13:23;100719.22;;;21.12;45.67
72959;BME280;60008;50.826;6.896;2023-05-01T13:16:15;100721.53;;;20.79;47.53
72959;BME280;60008;50.826;6.896;2023-05-01T13:19:00;100714.09;;;20.45;47.79
72959;BME280;60008;50.826;6.896;2023-05-01T13:21:46;100706.16;;;20.13;44.76
72959;BME280;60008;50.826;6.896;2023-05-01T13:24:38;100713.31;;;20.19;48.48
72959;BME280;60008;50.826;6.896;2023-05-01T13:27:24;100706.56;;;19.92;44.49
72959;BME280;60008;50.826;6.896;2023-05-01T13:30:09;100707.38;;;19.75;45.41
72959;BME280;60008;50.826;6.896;2023-05-01T13:32:56;100722.06;;;20.15;46.14
72959;BME280;60008;50.826;6.896;2023-05-01T13:35:41;100720.69;;;19.88;50.06
72959;BME280;60008;50.826;6.896;2023-05-01T13:38:27;100718.28;;;19.80;51.03
72959;BME280;60008;50.826;6.896;2023-05-01T13:41:14;100711.03;;;19.80;50.07
72959;BME280;60008;50.826;6.896;2023-05-01T13:44:00;100723.41;;;19.63;51.17
72959;BME280;60008;50.826;6.896;2023-05-01T13:46:45;100724.19;;;19.45;49.00
72959;BME280;60008;50.826;6.896;2023-05-01T13:49:31;100733.44;;;19.18;52.10
72959;BME280;60008;50.826;6.896;2023-05-01T13:52:17;100727.75;;;19.01;55.21
72959;BME280;60008;50.826;6.896;2023-05-01T13:55:05;100733.00;;;18.83;63.32
72959;BME280;60008;50.826;6.896;2023-05-01T13:57:51;100737.81;;;18.75;73.25
72959;BME280;60008;50.826;6.896;2023-05-01T14:00:37;100735.41;;;18.40;81.69
72959;BME280;60008;50.826;6.896;2023-05-01T14:03:23;100754.47;;;18.13;87.58
72959;BME280;60008;50.826;6.896;2023-05-01T14:06:16;100754.91;;;18.03;89.83
72959;BME280;60008;50.826;6.896;2023-05-01T14:09:03;100754.31;;;17.81;93.35
72959;BME280;60008;50.826;6.896;2023-05-01T14:11:49;100768.53;;;17.89;93.40
72959;BME280;60008;50.826;6.896;2023-05-01T14:14:35;100770.63;;;17.80;86.58
72959;BME280;60008;50.826;6.896;2023-05-01T14:17:33;100767.72;;;17.55;85.79
72959;BME280;60008;50.826;6.896;2023-05-01T14:20:20;100780.09;;;17.56;89.00
72959;BME280;60008;50.826;6.896;2023-05-01T14:23:05;100783.75;;;17.42;85.89
72959;BME280;60008;50.826;6.896;2023-05-01T14:25:50;100777.34;;;17.30;86.74
72959;BME280;60008;50.826;6.896;2023-05-01T14:28:40;100791.25;;;16.93;90.63
72959;BME280;60008;50.826;6.896;2023-05-01T14:31:27;100794.63;;;16.67;95.81
72959;BME280;60008;50.826;6.896;2023-05-01T14:34:14;100791.53;;;16.63;96.57
72959;BME280;60008;50.826;6.896;2023-05-01T14:37:01;100802.13;;;16.50;100.00
72959;BME280;60008;50.826;6.896;2023-05-01T14:39:46;100823.81;;;16.28;100.00
72959;BME280;60008;50.826;6.896;2023-05-01T14:42:30;100829.69;;;15.89;100.00
72959;BME280;60008;50.826;6.896;2023-05-01T14:45:16;100835.22;;;15.87;100.00